Time;durP1;ratioP1;P1;durP2;ratioP2;P2;SDS_P1;SDS_P2;PMS_P1;PMS_P2;Temp;Humidity;BMP_temperature;BMP_pressure;BME280_temperature;BME280_humidity;BME280_pressure;Samples;Min_cycle;Max_cycle;Signal;HPM_P1;HPM_P2
2022/10/12 00:00:36;;;;;;;21.58;9.05;;;;;;;9.01;100.00;99282.38;2600825;28;20049;-78
2022/10/12 00:02:12;;;;;;;15.23;8.82;;;;;;;8.76;100.00;99282.53;2605591;28;20052;-85
2022/10/12 00:03:27;;;;;;;18.05;9.75;;;;;;;8.82;100.00;99285.13;2601354;28;20052;-78
2022/10/12 00:04:43;;;;;;;15.43;9.10;;;;;;;8.89;100.00;99278.13;2603861;28;20123;-79
2022/10/12 00:06:08;;;;;;;19.23;9.55;;;;;;;8.87;100.00;99279.84;2601538;28;20515;-79
2022/10/12 00:07:24;;;;;;;16.20;9.00;;;;;;;8.98;100.00;99279.78;2603907;28;20080;-78
2022/10/12 00:08:41;;;;;;;19.52;9.60;;;;;;;9.03;100.00;99275.38;2602825;28;20041;-77
2022/10/12 00:09:56;;;;;;;17.88;8.52;;;;;;;8.99;100.00;99284.13;2605727;28;20049;-77
2022/10/12 00:11:22;;;;;;;19.38;9.35;;;;;;;8.86;100.00;99284.22;2602759;28;20072;-78
2022/10/12 00:12:38;;;;;;;16.38;9.70;;;;;;;8.89;100.00;99280.72;2604129;28;20076;-77
2022/10/12 00:13:54;;;;;;;16.77;8.82;;;;;;;9.01;100.00;99279.75;2602223;28;20091;-76
2022/10/12 00:15:11;;;;;;;16.25;8.85;;;;;;;9.14;100.00;99281.38;2605231;28;20057;-77
2022/10/12 00:16:30;;;;;;;19.02;8.52;;;;;;;9.22;100.00;99286.53;2603630;28;20488;-77
2022/10/12 00:17:45;;;;;;;14.70;7.60;;;;;;;9.04;100.00;99285.81;2604930;28;20057;-77
2022/10/12 00:19:01;;;;;;;17.50;8.55;;;;;;;8.94;100.00;99281.53;2601880;28;20076;-78
2022/10/12 00:20:16;;;;;;;16.17;8.68;;;;;;;8.96;100.00;99278.94;2602662;28;20123;-79
2022/10/12 00:21:32;;;;;;;16.73;7.70;;;;;;;9.02;100.00;99276.25;2600448;28;20081;-78
2022/10/12 00:22:48;;;;;;;15.07;8.27;;;;;;;9.03;100.00;99281.47;2600899;28;20561;-79
2022/10/12 00:24:03;;;;;;;16.80;7.78;;;;;;;9.03;100.00;99278.00;2603856;28;20144;-77
2022/10/12 00:25:19;;;;;;;14.05;7.28;;;;;;;9.02;100.00;99278.88;2601760;28;20099;-78
2022/10/12 00:26:35;;;;;;;19.33;8.05;;;;;;;8.89;100.00;99273.75;2604601;28;20052;-77
2022/10/12 00:27:50;;;;;;;15.27;7.70;;;;;;;8.87;100.00;99277.25;2602576;28;20045;-77
2022/10/12 00:29:06;;;;;;;15.90;8.18;;;;;;;8.88;100.00;99277.25;2601574;28;20169;-78
2022/10/12 00:30:21;;;;;;;15.82;7.38;;;;;;;8.74;100.00;99279.97;2602548;28;20049;-77
2022/10/12 00:31:37;;;;;;;16.63;8.00;;;;;;;8.87;100.00;99272.91;2604336;28;20140;-82
2022/10/12 00:32:53;;;;;;;13.98;7.55;;;;;;;8.96;100.00;99286.78;2601832;28;20053;-78
2022/10/12 00:34:08;;;;;;;14.43;7.60;;;;;;;8.99;100.00;99286.75;2603122;28;20072;-78
2022/10/12 00:35:26;;;;;;;15.48;8.48;;;;;;;9.02;100.00;99289.31;2602853;28;20053;-78
2022/10/12 00:36:42;;;;;;;14.75;8.20;;;;;;;9.09;100.00;99288.41;2605004;28;20071;-79
2022/10/12 00:37:58;;;;;;;16.40;9.00;;;;;;;9.21;100.00;99284.81;2601877;28;20561;-78
2022/10/12 00:39:13;;;;;;;13.93;7.85;;;;;;;9.22;100.00;99290.88;2601095;28;20057;-78
2022/10/12 00:40:29;;;;;;;16.42;7.40;;;;;;;9.12;100.00;99284.88;2602731;28;20048;-77
2022/10/12 00:41:45;;;;;;;17.67;7.95;;;;;;;9.17;100.00;99283.97;2603231;28;20059;-77
2022/10/12 00:43:00;;;;;;;18.38;7.15;;;;;;;9.13;100.00;99284.00;2601702;28;20052;-77
2022/10/12 00:44:36;;;;;;;14.88;7.43;;;;;;;9.02;100.00;99289.31;2601752;28;20052;-78
2022/10/12 00:45:52;;;;;;;16.27;7.90;;;;;;;9.10;100.00;99289.25;2603213;28;20107;-79
2022/10/12 00:47:24;;;;;;;15.40;7.03;;;;;;;9.02;100.00;99291.94;2600872;28;20424;-78
2022/10/12 00:48:41;;;;;;;15.07;7.80;;;;;;;9.24;100.00;99282.16;2602125;28;20076;-77
2022/10/12 00:50:13;;;;;;;13.68;7.45;;;;;;;9.30;100.00;99289.97;2604900;28;20443;-78
2022/10/12 00:51:28;;;;;;;17.80;7.80;;;;;;;9.25;100.00;99283.03;2605930;28;20563;-78
2022/10/12 00:53:17;;;;;;;14.85;7.45;;;;;;;9.18;100.00;99283.09;2604417;28;20494;-77
2022/10/12 00:54:38;;;;;;;13.18;7.10;;;;;;;9.18;100.00;99285.69;2604716;28;20079;-77
2022/10/12 00:56:00;;;;;;;14.32;7.35;;;;;;;9.30;100.00;99287.34;2607320;28;20171;-78
2022/10/12 00:57:18;;;;;;;14.45;7.88;;;;;;;9.19;100.00;99290.03;2604769;28;20127;-78
2022/10/12 00:58:34;;;;;;;12.73;6.90;;;;;;;9.25;100.00;99286.50;2602880;28;20048;-77
2022/10/12 00:59:55;;;;;;;15.05;7.22;;;;;;;9.27;100.00;99289.97;2604221;28;20053;-80
2022/10/12 01:01:11;;;;;;;15.88;7.20;;;;;;;9.33;100.00;99282.09;2603399;28;20068;-77
2022/10/12 01:02:30;;;;;;;16.63;7.40;;;;;;;9.37;100.00;99282.06;2603757;28;20045;-78
2022/10/12 01:03:47;;;;;;;17.55;7.72;;;;;;;9.36;100.00;99283.81;2600821;28;20057;-77
2022/10/12 01:05:03;;;;;;;15.70;6.82;;;;;;;9.33;100.00;99289.94;2602664;28;20049;-78
2022/10/12 01:06:19;;;;;;;19.02;7.50;;;;;;;9.37;100.00;99280.31;2601136;28;20052;-78
2022/10/12 01:07:34;;;;;;;16.13;7.25;;;;;;;9.13;100.00;99277.03;2602357;28;20526;-78
2022/10/12 01:08:52;;;;;;;16.65;7.30;;;;;;;9.28;100.00;99273.41;2600189;28;20132;-78
2022/10/12 01:10:08;;;;;;;16.30;8.00;;;;;;;9.32;100.00;99272.53;2602263;28;20052;-82
2022/10/12 01:11:24;;;;;;;14.60;7.35;;;;;;;9.27;100.00;99276.06;2601959;28;20073;-79
2022/10/12 01:12:45;;;;;;;15.80;7.55;;;;;;;9.23;100.00;99269.13;2602304;28;20492;-78
2022/10/12 01:14:01;;;;;;;16.40;7.65;;;;;;;9.29;100.00;99271.69;2605060;28;20060;-78
2022/10/12 01:15:17;;;;;;;15.25;7.32;;;;;;;9.35;100.00;99266.38;2603240;28;20064;-77
2022/10/12 01:16:57;;;;;;;16.20;7.85;;;;;;;9.44;100.00;99262.84;2601549;28;20053;-78
2022/10/12 01:18:24;;;;;;;14.57;7.57;;;;;;;9.31;100.00;99262.06;2605855;28;20061;-78
2022/10/12 01:20:05;;;;;;;12.73;7.50;;;;;;;9.25;100.00;99255.16;2599820;28;20053;-77
2022/10/12 01:21:22;;;;;;;14.63;7.88;;;;;;;9.25;100.00;99257.78;2604401;28;20052;-77
2022/10/12 01:22:54;;;;;;;14.32;8.02;;;;;;;9.13;100.00;99257.88;2602453;28;20536;-81
2022/10/12 01:24:49;;;;;;;12.63;7.13;;;;;;;9.35;100.00;99258.53;2602276;28;20093;-78
2022/10/12 01:26:42;;;;;;;12.77;6.80;;;;;;;8.83;100.00;99263.34;2603620;28;20049;-77
2022/10/12 01:28:26;;;;;;;15.27;7.70;;;;;;;8.88;100.00;99253.72;2604211;28;20052;-78
2022/10/12 01:30:15;;;;;;;14.35;7.10;;;;;;;8.65;100.00;99266.09;2603512;28;20471;-79
2022/10/12 01:31:56;;;;;;;15.30;7.22;;;;;;;8.58;100.00;99266.13;2604372;28;20144;-77
2022/10/12 01:33:23;;;;;;;16.48;7.13;;;;;;;8.71;100.00;99268.66;2604269;28;20053;-76
2022/10/12 01:35:06;;;;;;;12.95;7.15;;;;;;;9.02;100.00;99266.69;2605532;28;20052;-78
2022/10/12 01:36:32;;;;;;;13.25;7.35;;;;;;;9.21;100.00;99258.69;2601204;28;20638;-80
2022/10/12 01:37:57;;;;;;;15.52;7.50;;;;;;;9.31;100.00;99264.69;2603510;28;20060;-78
2022/10/12 01:39:23;;;;;;;13.90;8.38;;;;;;;9.29;100.00;99258.59;2609378;28;20048;-78
2022/10/12 01:40:47;;;;;;;14.13;7.80;;;;;;;9.32;100.00;99255.97;2607707;28;20076;-78
2022/10/12 01:42:08;;;;;;;16.58;8.02;;;;;;;9.24;100.00;99255.19;2602743;28;20053;-78
2022/10/12 01:43:33;;;;;;;18.27;7.57;;;;;;;9.19;100.00;99255.22;2602032;28;20423;-79
2022/10/12 01:44:49;;;;;;;16.08;8.48;;;;;;;8.98;100.00;99251.91;2603402;28;20514;-77
2022/10/12 01:46:25;;;;;;;15.40;7.72;;;;;;;9.01;100.00;99257.13;2600612;28;20103;-78
2022/10/12 01:47:43;;;;;;;15.63;7.90;;;;;;;8.98;100.00;99249.28;2607849;28;20606;-78
2022/10/12 01:49:01;;;;;;;14.23;7.50;;;;;;;9.24;100.00;99250.81;2604725;28;20091;-78
2022/10/12 01:50:17;;;;;;;17.77;7.85;;;;;;;9.32;100.00;99248.13;2601706;28;20610;-79
2022/10/12 01:52:03;;;;;;;14.32;7.40;;;;;;;9.32;100.00;99242.91;2602385;28;20503;-78
2022/10/12 01:53:30;;;;;;;13.88;7.57;;;;;;;9.35;100.00;99242.00;2602129;28;20049;-77
2022/10/12 01:55:13;;;;;;;17.83;8.05;;;;;;;9.38;100.00;99245.47;2602927;28;20060;-78
2022/10/12 01:56:44;;;;;;;15.98;7.43;;;;;;;9.25;100.00;99243.84;2602650;28;20123;-77
2022/10/12 01:58:28;;;;;;;15.63;7.28;;;;;;;9.17;100.00;99247.38;2603934;28;20055;-79
2022/10/12 02:00:04;;;;;;;14.63;7.72;;;;;;;9.20;100.00;99243.88;2604278;28;20056;-79
2022/10/12 02:02:07;;;;;;;15.43;7.25;;;;;;;9.11;100.00;99250.06;2605095;28;20057;-78
2022/10/12 02:03:40;;;;;;;16.85;8.00;;;;;;;9.27;100.00;99249.94;2604048;28;20652;-79
2022/10/12 02:04:59;;;;;;;;;;;;;;;9.31;100.00;99249.00;2605801;28;20350;-79
2022/10/12 02:06:18;;;;;;;13.18;6.13;;;;;;;9.29;100.00;99250.78;2605117;28;19925;-78
2022/10/12 02:07:46;;;;;;;15.05;7.53;;;;;;;9.34;100.00;99254.19;2603009;28;20057;-78
2022/10/12 02:09:04;;;;;;;15.27;7.43;;;;;;;9.47;100.00;99247.13;2602485;28;20476;-79
2022/10/12 02:10:26;;;;;;;14.52;7.45;;;;;;;9.57;100.00;99253.09;2600874;28;20290;-78
2022/10/12 02:11:43;;;;;;;15.43;7.20;;;;;;;9.55;100.00;99249.66;2600174;28;20061;-79
2022/10/12 02:13:04;;;;;;;12.90;7.18;;;;;;;9.68;100.00;99245.13;2604212;28;20510;-79
2022/10/12 02:14:31;;;;;;;14.73;7.13;;;;;;;9.67;100.00;99249.50;2599641;28;20052;-80
2022/10/12 02:15:47;;;;;;;13.70;7.00;;;;;;;9.62;100.00;99243.44;2603178;28;20052;-78
2022/10/12 02:17:08;;;;;;;13.50;8.25;;;;;;;9.63;100.00;99244.34;2604889;28;20455;-79
2022/10/12 02:18:26;;;;;;;12.18;7.15;;;;;;;9.55;100.00;99244.41;2601967;28;20605;-79
2022/10/12 02:20:02;;;;;;;15.30;8.10;;;;;;;9.38;100.00;99247.19;2602927;28;20142;-79
2022/10/12 02:21:21;;;;;;;16.15;7.57;;;;;;;9.53;100.00;99251.41;2604535;28;20045;-78
2022/10/12 02:22:40;;;;;;;15.52;7.50;;;;;;;9.33;100.00;99249.84;2602502;28;20087;-79
2022/10/12 02:23:59;;;;;;;14.13;8.05;;;;;;;9.30;100.00;99247.28;2603945;28;20045;-78
2022/10/12 02:25:19;;;;;;;12.85;7.20;;;;;;;9.40;100.00;99251.53;2599935;28;20049;-79
2022/10/12 02:26:39;;;;;;;12.05;7.10;;;;;;;9.54;100.00;99247.91;2603430;28;20056;-78
2022/10/12 02:28:02;;;;;;;12.20;7.10;;;;;;;9.58;100.00;99249.59;2603102;28;20055;-80
2022/10/12 02:29:23;;;;;;;17.33;7.05;;;;;;;9.50;100.00;99248.81;2600352;28;20519;-79
2022/10/12 02:30:58;;;;;;;14.68;7.85;;;;;;;9.46;100.00;99241.00;2602735;28;20152;-78
2022/10/12 02:32:32;;;;;;;16.00;7.40;;;;;;;9.30;100.00;99242.06;2604227;28;20049;-80
2022/10/12 02:34:03;;;;;;;15.07;7.07;;;;;;;9.21;100.00;99234.28;2604370;28;20061;-80
2022/10/12 02:36:00;;;;;;;12.93;7.55;;;;;;;9.11;100.00;99241.34;2603714;28;20099;-79
2022/10/12 02:37:41;;;;;;;16.45;7.53;;;;;;;9.34;100.00;99238.50;2614648;28;20396;-78
2022/10/12 02:39:10;;;;;;;14.68;7.57;;;;;;;9.21;100.00;99237.78;2614926;28;20048;-78
2022/10/12 02:40:50;;;;;;;16.48;7.47;;;;;;;9.37;100.00;99241.13;2614905;28;20044;-78
2022/10/12 02:42:14;;;;;;;13.65;7.15;;;;;;;9.33;100.00;99240.28;2615016;28;20060;-79
2022/10/12 02:43:51;;;;;;;18.35;7.60;;;;;;;9.23;100.00;99240.41;2599699;28;20095;-79
2022/10/12 02:45:08;;;;;;;17.52;7.32;;;;;;;9.45;100.00;99234.03;2601319;28;20554;-78
2022/10/12 02:46:26;;;;;;;17.20;8.32;;;;;;;9.49;100.00;99231.41;2600170;28;20075;-79
2022/10/12 02:47:44;;;;;;;15.30;7.72;;;;;;;9.44;100.00;99234.94;2600846;28;20049;-79
2022/10/12 02:49:02;;;;;;;19.77;7.93;;;;;;;9.38;100.00;99231.50;2601581;28;20049;-80
2022/10/12 02:50:20;;;;;;;16.95;7.63;;;;;;;9.31;100.00;99228.09;2603354;28;20491;-79
2022/10/12 02:51:38;;;;;;;16.77;7.40;;;;;;;9.26;100.00;99227.28;2602286;28;21025;-78
2022/10/12 02:52:53;;;;;;;11.95;7.57;;;;;;;9.25;100.00;99222.94;2602622;28;20053;-79
2022/10/12 02:54:09;;;;;;;13.90;7.28;;;;;;;9.32;100.00;99228.09;2600592;28;20064;-78
2022/10/12 02:55:25;;;;;;;17.30;7.57;;;;;;;9.31;100.00;99231.59;2603556;28;20049;-78
2022/10/12 02:56:43;;;;;;;13.70;7.45;;;;;;;9.40;100.00;99228.00;2602022;28;20052;-79
2022/10/12 02:57:59;;;;;;;14.57;7.85;;;;;;;9.35;100.00;99224.56;2603431;28;20068;-82
2022/10/12 02:59:16;;;;;;;14.35;8.20;;;;;;;9.43;100.00;99232.34;2601509;28;20056;-79
2022/10/12 03:00:33;;;;;;;21.92;8.00;;;;;;;9.48;100.00;99235.78;2602246;28;20046;-78
2022/10/12 03:01:48;;;;;;;17.27;8.00;;;;;;;9.50;100.00;99230.50;2600765;28;20531;-79
2022/10/12 03:03:04;;;;;;;15.50;7.97;;;;;;;9.50;100.00;99231.38;2601450;28;20045;-78
2022/10/12 03:04:19;;;;;;;14.45;8.10;;;;;;;9.44;100.00;99234.94;2602680;28;20045;-79
2022/10/12 03:05:35;;;;;;;17.77;8.05;;;;;;;9.39;100.00;99231.50;2601976;28;20045;-79
2022/10/12 03:06:51;;;;;;;15.23;8.00;;;;;;;9.45;100.00;99241.88;2604694;28;20077;-79
2022/10/12 03:08:06;;;;;;;17.15;8.07;;;;;;;9.49;100.00;99239.22;2602445;28;20404;-79
2022/10/12 03:09:22;;;;;;;19.45;8.15;;;;;;;9.42;100.00;99234.09;2599421;28;20060;-81
2022/10/12 03:10:37;;;;;;;15.10;8.00;;;;;;;9.39;100.00;99243.69;2601587;28;20053;-79
2022/10/12 03:11:53;;;;;;;16.38;8.07;;;;;;;9.37;100.00;99237.63;2601333;28;20092;-78
2022/10/12 03:13:09;;;;;;;16.42;8.43;;;;;;;9.36;100.00;99239.38;2602893;28;20061;-78
2022/10/12 03:14:26;;;;;;;15.70;7.43;;;;;;;9.34;100.00;99235.91;2599297;28;20526;-78
2022/10/12 03:15:41;;;;;;;16.92;8.75;;;;;;;9.33;100.00;99242.88;2600557;28;20037;-78
2022/10/12 03:16:57;;;;;;;13.40;7.60;;;;;;;9.16;100.00;99239.59;2599126;28;20179;-80
2022/10/12 03:18:13;;;;;;;15.75;7.95;;;;;;;9.18;100.00;99236.06;2601688;28;20500;-78
2022/10/12 03:19:28;;;;;;;12.38;6.97;;;;;;;9.39;100.00;99238.47;2605834;28;20053;-78
2022/10/12 03:20:47;;;;;;;15.43;8.32;;;;;;;9.45;100.00;99238.44;2602396;28;20517;-79
2022/10/12 03:22:03;;;;;;;13.30;7.50;;;;;;;9.54;100.00;99227.84;2603991;28;20083;-77
2022/10/12 03:23:18;;;;;;;15.90;7.75;;;;;;;9.22;100.00;99230.78;2603246;28;20060;-77
2022/10/12 03:24:34;;;;;;;18.88;7.82;;;;;;;8.98;100.00;99224.94;2600656;28;20072;-77
2022/10/12 03:25:49;;;;;;;14.88;8.35;;;;;;;9.04;100.00;99227.47;2599943;28;20050;-77
2022/10/12 03:27:05;;;;;;;17.48;8.73;;;;;;;8.93;100.00;99219.75;2601858;28;20102;-78
2022/10/12 03:28:21;;;;;;;18.75;8.93;;;;;;;8.96;100.00;99232.78;2600735;28;20143;-80
2022/10/12 03:29:36;;;;;;;14.32;8.38;;;;;;;9.03;100.00;99217.91;2602003;28;20111;-77
2022/10/12 03:30:52;;;;;;;19.13;9.00;;;;;;;8.95;100.00;99222.38;2601166;28;20049;-79
2022/10/12 03:32:07;;;;;;;16.17;8.85;;;;;;;8.75;100.00;99225.97;2602488;28;20053;-78
2022/10/12 03:33:23;;;;;;;17.02;8.30;;;;;;;8.70;100.00;99222.56;2600832;28;20149;-78
2022/10/12 03:34:39;;;;;;;17.42;7.97;;;;;;;8.67;100.00;99222.59;2599205;28;20510;-78
2022/10/12 03:35:54;;;;;;;17.77;7.95;;;;;;;8.76;100.00;99232.94;2603498;28;20061;-78
2022/10/12 03:37:10;;;;;;;18.95;8.43;;;;;;;8.77;100.00;99229.44;2601431;28;20144;-79
2022/10/12 03:38:26;;;;;;;18.80;8.82;;;;;;;8.70;100.00;99225.16;2602559;28;20040;-78
2022/10/12 03:39:41;;;;;;;16.88;9.20;;;;;;;8.69;100.00;99226.03;2600826;28;20076;-78
2022/10/12 03:40:57;;;;;;;15.35;8.60;;;;;;;8.59;100.00;99223.50;2603303;28;20045;-78
2022/10/12 03:42:13;;;;;;;17.58;8.52;;;;;;;8.60;100.00;99224.38;2599628;28;20056;-78
2022/10/12 03:43:28;;;;;;;16.80;8.45;;;;;;;8.73;100.00;99225.13;2602046;28;20053;-78
2022/10/12 03:44:44;;;;;;;16.05;8.40;;;;;;;8.73;100.00;99227.75;2601975;28;20049;-79
2022/10/12 03:45:59;;;;;;;17.17;8.75;;;;;;;8.86;100.00;99220.66;2601412;28;20075;-81
2022/10/12 03:47:15;;;;;;;16.75;8.65;;;;;;;9.04;100.00;99228.38;2602860;28;20107;-78
2022/10/12 03:48:31;;;;;;;17.23;8.63;;;;;;;8.95;100.00;99227.59;2600324;28;20049;-78
2022/10/12 03:49:46;;;;;;;21.02;8.98;;;;;;;8.74;100.00;99230.34;2600849;28;20068;-79
2022/10/12 03:51:02;;;;;;;21.40;7.80;;;;;;;8.68;100.00;99226.94;2600635;28;20046;-78
2022/10/12 03:52:18;;;;;;;16.33;7.88;;;;;;;8.80;100.00;99232.06;2604991;28;20056;-78
2022/10/12 03:53:33;;;;;;;17.55;9.38;;;;;;;8.89;100.00;99233.72;2602568;28;20061;-80
2022/10/12 03:54:49;;;;;;;14.95;9.18;;;;;;;8.98;100.00;99227.56;2602031;28;20049;-79
2022/10/12 03:56:04;;;;;;;17.95;9.18;;;;;;;9.06;100.00;99225.72;2604044;28;20412;-78
2022/10/12 03:57:20;;;;;;;15.07;8.57;;;;;;;9.25;100.00;99228.19;2600429;28;20136;-78
2022/10/12 03:58:36;;;;;;;19.73;9.18;;;;;;;9.28;100.00;99215.91;2602111;28;20127;-78
2022/10/12 03:59:51;;;;;;;16.02;8.68;;;;;;;9.35;100.00;99221.94;2599553;28;20049;-79
2022/10/12 04:01:07;;;;;;;15.65;8.13;;;;;;;9.36;100.00;99217.59;2599273;28;20053;-78
2022/10/12 04:02:23;;;;;;;14.50;8.45;;;;;;;9.36;100.00;99218.47;2599805;28;20085;-78
2022/10/12 04:03:38;;;;;;;21.08;8.30;;;;;;;9.40;100.00;99209.72;2601027;28;20147;-78
2022/10/12 04:04:54;;;;;;;14.13;8.13;;;;;;;9.41;100.00;99215.78;2600390;28;20052;-79
2022/10/12 04:06:09;;;;;;;16.05;8.65;;;;;;;9.43;100.00;99220.13;2601031;28;20052;-79
2022/10/12 04:07:25;;;;;;;13.65;7.38;;;;;;;9.27;100.00;99219.41;2602831;28;20052;-78
2022/10/12 04:08:40;;;;;;;13.65;8.00;;;;;;;9.22;100.00;99217.72;2603740;28;20055;-78
2022/10/12 04:09:56;;;;;;;13.25;7.90;;;;;;;9.16;100.00;99224.75;2602041;28;20057;-78
2022/10/12 04:11:12;;;;;;;15.05;8.40;;;;;;;8.97;100.00;99224.06;2601038;28;20424;-78
2022/10/12 04:12:27;;;;;;;16.13;8.60;;;;;;;8.75;100.00;99225.97;2602420;28;20049;-78
2022/10/12 04:13:43;;;;;;;16.00;8.07;;;;;;;9.07;100.00;99221.38;2603535;28;20389;-78
2022/10/12 04:14:59;;;;;;;15.07;8.10;;;;;;;9.24;100.00;99231.66;2602583;28;20045;-77
2022/10/12 04:16:14;;;;;;;15.02;7.85;;;;;;;9.38;100.00;99232.41;2604421;28;20053;-79
2022/10/12 04:17:30;;;;;;;14.80;7.63;;;;;;;9.40;100.00;99224.53;2607586;28;20049;-79
2022/10/12 04:18:45;;;;;;;16.08;7.35;;;;;;;9.19;100.00;99227.34;2603609;28;20063;-77
2022/10/12 04:20:01;;;;;;;13.68;7.45;;;;;;;9.26;100.00;99227.28;2604864;28;20397;-79
2022/10/12 04:21:19;;;;;;;16.23;7.72;;;;;;;9.37;100.00;99235.91;2602154;28;20049;-78
2022/10/12 04:22:35;;;;;;;14.95;7.32;;;;;;;9.29;100.00;99232.47;2607381;28;20110;-78
2022/10/12 04:23:51;;;;;;;13.73;7.38;;;;;;;9.33;100.00;99229.81;2604476;28;20076;-79
2022/10/12 04:25:09;;;;;;;14.68;8.07;;;;;;;9.42;100.00;99231.47;2603966;28;20053;-78
2022/10/12 04:26:25;;;;;;;14.73;7.60;;;;;;;9.37;100.00;99235.91;2603650;28;20067;-79
2022/10/12 04:27:41;;;;;;;19.83;7.60;;;;;;;9.36;100.00;99225.44;2602384;28;20045;-78
2022/10/12 04:28:56;;;;;;;13.75;7.10;;;;;;;9.41;100.00;99232.34;2600647;28;20061;-78
2022/10/12 04:30:12;;;;;;;12.93;6.80;;;;;;;9.33;100.00;99226.34;2601828;28;20046;-78
2022/10/12 04:31:28;;;;;;;13.80;7.05;;;;;;;9.38;100.00;99223.69;2605803;28;20057;-78
2022/10/12 04:32:44;;;;;;;13.60;6.53;;;;;;;9.39;100.00;99230.63;2603107;28;20049;-78
2022/10/12 04:33:59;;;;;;;12.80;6.38;;;;;;;9.51;100.00;99225.28;2600468;28;20447;-83
2022/10/12 04:35:15;;;;;;;12.98;6.28;;;;;;;9.41;100.00;99227.13;2602969;28;20056;-83
2022/10/12 04:36:30;;;;;;;12.25;6.32;;;;;;;9.13;100.00;99227.41;2600910;28;20061;-78
2022/10/12 04:37:46;;;;;;;12.98;6.40;;;;;;;9.10;100.00;99229.19;2602267;28;20168;-77
2022/10/12 04:39:02;;;;;;;10.80;6.03;;;;;;;9.19;100.00;99229.09;2605793;28;20519;-79
2022/10/12 04:40:17;;;;;;;10.85;6.60;;;;;;;9.28;100.00;99231.59;2601911;28;20052;-78
2022/10/12 04:41:33;;;;;;;10.93;5.93;;;;;;;9.24;100.00;99232.53;2602990;28;21162;-78
2022/10/12 04:42:49;;;;;;;12.88;5.95;;;;;;;9.36;100.00;99234.16;2605343;28;20470;-77
2022/10/12 04:44:05;;;;;;;13.10;7.22;;;;;;;9.28;100.00;99234.22;2605236;28;20521;-78
2022/10/12 04:45:21;;;;;;;12.73;6.35;;;;;;;9.39;100.00;99225.41;2602919;28;20435;-79
2022/10/12 04:46:37;;;;;;;14.40;6.45;;;;;;;9.38;100.00;99227.16;2606420;28;20045;-78
2022/10/12 04:47:52;;;;;;;11.05;6.57;;;;;;;9.41;100.00;99227.13;2603217;28;20095;-79
2022/10/12 04:49:08;;;;;;;11.68;6.40;;;;;;;9.40;100.00;99230.63;2604236;28;20080;-83
2022/10/12 04:50:23;;;;;;;10.80;6.50;;;;;;;9.42;100.00;99239.31;2601562;28;20049;-79
2022/10/12 04:51:39;;;;;;;11.38;6.55;;;;;;;9.43;100.00;99237.59;2605536;28;20049;-79
2022/10/12 04:52:55;;;;;;;13.13;6.32;;;;;;;9.45;100.00;99234.03;2601318;28;20163;-79
2022/10/12 04:54:10;;;;;;;9.93;5.97;;;;;;;9.44;100.00;99244.53;2603400;28;20057;-86
2022/10/12 04:55:26;;;;;;;11.45;6.85;;;;;;;9.43;100.00;99245.41;2602500;28;20514;-81
2022/10/12 04:56:42;;;;;;;12.25;6.65;;;;;;;9.39;100.00;99246.31;2602665;28;20446;-80
2022/10/12 04:57:59;;;;;;;11.40;6.72;;;;;;;9.32;100.00;99241.16;2601367;28;20053;-79
2022/10/12 04:59:14;;;;;;;14.10;6.85;;;;;;;9.28;100.00;99239.44;2603655;28;20044;-79
2022/10/12 05:00:30;;;;;;;12.45;7.10;;;;;;;9.19;100.00;99235.16;2603175;28;20056;-79
2022/10/12 05:01:45;;;;;;;12.45;6.80;;;;;;;9.22;100.00;99231.69;2600469;28;20056;-79
2022/10/12 05:03:02;;;;;;;16.02;6.90;;;;;;;9.25;100.00;99236.00;2603145;28;20086;-80
2022/10/12 05:04:18;;;;;;;15.52;6.82;;;;;;;9.19;100.00;99236.94;2603845;28;20400;-78
2022/10/12 05:05:48;;;;;;;12.40;7.03;;;;;;;8.84;100.00;99236.38;2603180;28;20045;-78
2022/10/12 05:07:03;;;;;;;11.20;6.00;;;;;;;8.87;100.00;99238.94;2604669;28;20049;-78
2022/10/12 05:08:22;;;;;;;12.70;6.97;;;;;;;9.02;100.00;99235.34;2602811;28;20132;-78
2022/10/12 05:09:41;;;;;;;12.30;6.47;;;;;;;9.05;100.00;99237.03;2602419;28;20052;-78
2022/10/12 05:10:58;;;;;;;15.90;6.53;;;;;;;9.02;100.00;99239.69;2604213;28;20056;-78
2022/10/12 05:12:13;;;;;;;12.55;6.28;;;;;;;9.02;100.00;99239.69;2604450;28;20050;-79
2022/10/12 05:13:29;;;;;;;14.25;6.88;;;;;;;9.10;100.00;99240.50;2604632;28;20059;-81
2022/10/12 05:14:45;;;;;;;15.98;7.13;;;;;;;9.12;100.00;99241.34;2601883;28;20691;-77
2022/10/12 05:16:00;;;;;;;12.10;6.00;;;;;;;9.10;100.00;99237.00;2604672;28;20507;-77
2022/10/12 05:17:16;;;;;;;13.75;6.25;;;;;;;9.08;100.00;99247.50;2601005;28;20050;-78
2022/10/12 05:18:32;;;;;;;10.32;5.90;;;;;;;9.02;100.00;99243.19;2601538;28;20503;-77
2022/10/12 05:19:48;;;;;;;12.38;6.45;;;;;;;9.11;100.00;99244.84;2602623;28;20054;-77
2022/10/12 05:21:05;;;;;;;14.07;6.80;;;;;;;9.15;100.00;99248.28;2601253;28;20053;-78
2022/10/12 05:22:21;;;;;;;12.23;6.20;;;;;;;9.16;100.00;99245.66;2601042;28;20049;-77
2022/10/12 05:23:37;;;;;;;14.90;6.75;;;;;;;9.14;100.00;99243.94;2601834;28;20127;-78
2022/10/12 05:24:55;;;;;;;14.10;6.35;;;;;;;9.15;100.00;99248.28;2602524;28;20496;-78
2022/10/12 05:26:11;;;;;;;13.38;6.05;;;;;;;9.13;100.00;99247.44;2603360;28;20239;-78
2022/10/12 05:27:29;;;;;;;14.90;6.32;;;;;;;8.94;100.00;99244.09;2602615;28;20080;-77
2022/10/12 05:28:45;;;;;;;14.98;5.88;;;;;;;8.92;100.00;99251.97;2601573;28;20049;-77
2022/10/12 05:30:01;;;;;;;12.43;6.50;;;;;;;8.81;100.00;99251.19;2602951;28;20064;-77
2022/10/12 05:31:16;;;;;;;13.50;6.32;;;;;;;8.85;100.00;99247.66;2602616;28;20431;-77
2022/10/12 05:32:32;;;;;;;11.98;6.07;;;;;;;9.09;100.00;99246.63;2601893;28;20052;-79
2022/10/12 05:33:47;;;;;;;16.20;6.10;;;;;;;9.12;100.00;99253.53;2601574;28;20554;-77
2022/10/12 05:35:06;;;;;;;14.13;6.82;;;;;;;9.22;100.00;99246.47;2603122;28;20053;-78
2022/10/12 05:36:22;;;;;;;12.13;6.55;;;;;;;9.20;100.00;99243.88;2603067;28;20430;-78
2022/10/12 05:37:37;;;;;;;15.63;6.80;;;;;;;9.22;100.00;99247.34;2603167;28;20123;-77
2022/10/12 05:38:53;;;;;;;11.02;5.85;;;;;;;9.00;100.00;99252.75;2602030;28;20746;-77
2022/10/12 05:40:09;;;;;;;14.52;6.28;;;;;;;9.16;100.00;99252.66;2601447;28;20052;-78
2022/10/12 05:41:24;;;;;;;16.83;6.43;;;;;;;9.23;100.00;99253.47;2603233;28;20049;-81
2022/10/12 05:42:40;;;;;;;11.65;6.30;;;;;;;9.25;100.00;99251.69;2601245;28;20053;-85
2022/10/12 05:43:56;;;;;;;15.68;6.95;;;;;;;9.27;100.00;99253.38;2600869;28;20056;-81
2022/10/12 05:45:11;;;;;;;12.10;6.18;;;;;;;9.27;100.00;99258.63;2601863;28;20048;-81
2022/10/12 05:46:27;;;;;;;13.63;6.60;;;;;;;9.25;100.00;99247.31;2600084;28;20095;-82
2022/10/12 05:47:42;;;;;;;18.58;7.20;;;;;;;9.31;100.00;99249.00;2601714;28;20098;-82
2022/10/12 05:48:59;;;;;;;14.05;6.53;;;;;;;9.35;100.00;99253.31;2600671;28;20063;-83
2022/10/12 05:50:14;;;;;;;18.60;6.95;;;;;;;9.32;100.00;99250.72;2600637;28;20049;-81
2022/10/12 05:51:30;;;;;;;16.48;7.03;;;;;;;9.27;100.00;99255.16;2600053;28;20044;-81
2022/10/12 05:52:45;;;;;;;17.23;7.60;;;;;;;9.30;100.00;99257.72;2601012;28;20041;-82
2022/10/12 05:54:01;;;;;;;22.25;8.40;;;;;;;9.41;100.00;99253.28;2604173;28;20052;-82
2022/10/12 05:55:16;;;;;;;13.95;7.60;;;;;;;9.34;100.00;99254.19;2600295;28;20053;-82
2022/10/12 05:56:32;;;;;;;18.73;8.07;;;;;;;9.26;100.00;99248.19;2600439;28;20507;-81
2022/10/12 05:57:48;;;;;;;18.73;9.05;;;;;;;9.21;100.00;99249.97;2601289;28;20045;-81
2022/10/12 05:59:04;;;;;;;13.05;7.50;;;;;;;9.36;100.00;99249.84;2602914;28;20063;-83
2022/10/12 06:00:20;;;;;;;15.60;8.30;;;;;;;9.39;100.00;99249.81;2601645;28;20057;-81
2022/10/12 06:01:37;;;;;;;13.95;7.30;;;;;;;9.39;100.00;99248.94;2603765;28;20045;-82
2022/10/12 06:02:53;;;;;;;14.55;6.63;;;;;;;9.38;100.00;99252.44;2600973;28;20140;-81
2022/10/12 06:04:09;;;;;;;13.88;5.93;;;;;;;9.38;100.00;99244.59;2602692;28;20083;-84
2022/10/12 06:05:25;;;;;;;12.02;5.75;;;;;;;9.40;100.00;99251.53;2604145;28;20053;-82
2022/10/12 06:06:40;;;;;;;13.32;6.00;;;;;;;9.21;100.00;99256.06;2600887;28;20056;-81
2022/10/12 06:07:56;;;;;;;14.45;5.75;;;;;;;9.27;100.00;99257.75;2601705;28;20056;-81
2022/10/12 06:09:12;;;;;;;17.25;6.10;;;;;;;9.18;100.00;99253.50;2602470;28;20049;-82
2022/10/12 06:10:28;;;;;;;13.32;5.13;;;;;;;9.24;100.00;99256.03;2600903;28;20045;-82